createdAt,value
2019-06-15T00:02:26.922Z,3.20
2019-06-15T00:04:55.794Z,3.67
2019-06-15T00:07:24.608Z,3.20
2019-06-15T00:09:53.495Z,5.90
2019-06-15T00:12:22.331Z,3.40
2019-06-15T00:14:51.200Z,3.87
2019-06-15T00:17:20.088Z,4.37
2019-06-15T00:19:48.908Z,3.90
2019-06-15T00:22:17.863Z,6.03
2019-06-15T00:24:46.720Z,4.13
2019-06-15T00:27:15.667Z,5.63
2019-06-15T00:29:44.470Z,4.97
2019-06-15T00:32:13.340Z,7.07
2019-06-15T00:34:42.125Z,3.83
2019-06-15T00:37:10.934Z,4.17
2019-06-15T00:39:39.742Z,6.15
2019-06-15T00:42:08.553Z,4.07
2019-06-15T00:44:37.490Z,4.37
2019-06-15T00:47:06.429Z,8.07
2019-06-15T00:49:35.206Z,4.95
2019-06-15T00:52:04.241Z,4.42
2019-06-15T00:54:33.056Z,3.87
2019-06-15T00:57:01.864Z,3.90
2019-06-15T00:59:30.728Z,4.93
2019-06-15T01:01:59.577Z,4.07
2019-06-15T01:04:28.537Z,3.97
2019-06-15T01:06:57.361Z,4.17
2019-06-15T01:09:26.258Z,4.60
2019-06-15T01:11:55.069Z,5.30
2019-06-15T01:14:23.917Z,4.80
2019-06-15T01:16:52.770Z,4.60
2019-06-15T01:19:21.776Z,4.40
2019-06-15T01:21:50.772Z,4.70
2019-06-15T01:24:19.568Z,5.23
2019-06-15T01:26:48.447Z,6.37
2019-06-15T01:29:17.483Z,6.17
2019-06-15T01:31:46.323Z,5.37
2019-06-15T01:34:15.215Z,5.10
2019-06-15T01:36:44.014Z,7.10
2019-06-15T01:39:12.844Z,5.43
2019-06-15T01:41:41.738Z,7.35
2019-06-15T01:44:10.621Z,5.03
2019-06-15T01:46:39.644Z,6.37
2019-06-15T01:49:08.486Z,5.47
2019-06-15T01:51:37.361Z,6.70
2019-06-15T01:54:06.348Z,4.57
2019-06-15T01:56:35.166Z,5.83
2019-06-15T01:59:04.132Z,5.73
2019-06-15T02:01:33.066Z,5.90
2019-06-15T02:04:01.940Z,7.30
2019-06-15T02:06:30.900Z,5.97
2019-06-15T02:08:59.720Z,5.87
2019-06-15T02:11:28.613Z,6.47
2019-06-15T02:13:57.518Z,6.80
2019-06-15T02:16:26.366Z,6.50
2019-06-15T02:18:55.549Z,8.83
2019-06-15T02:21:24.393Z,7.47
2019-06-15T02:23:53.331Z,8.57
2019-06-15T02:26:22.392Z,8.73
2019-06-15T02:28:51.220Z,9.83
2019-06-15T02:31:20.046Z,7.30
2019-06-15T02:33:48.932Z,6.80
2019-06-15T02:36:17.916Z,8.50
2019-06-15T02:38:46.873Z,9.37
2019-06-15T02:41:15.761Z,9.13
2019-06-15T02:43:44.743Z,9.17
2019-06-15T02:46:13.719Z,10.70
2019-06-15T02:48:42.593Z,8.77
2019-06-15T02:51:11.501Z,8.73
2019-06-15T02:53:40.293Z,10.87
2019-06-15T02:56:09.268Z,12.37
2019-06-15T02:58:38.243Z,10.53
2019-06-15T03:01:09.070Z,10.33
2019-06-15T03:03:37.970Z,10.17
2019-06-15T03:06:07.129Z,11.90
2019-06-15T03:08:36.300Z,13.58
2019-06-15T03:11:05.978Z,10.57
2019-06-15T03:13:35.845Z,10.30
2019-06-15T03:16:05.770Z,15.07
2019-06-15T03:18:34.590Z,10.27
2019-06-15T03:21:03.620Z,11.43
2019-06-15T03:23:32.453Z,10.73
2019-06-15T03:26:05.457Z,12.33
2019-06-15T03:28:32.095Z,11.63
2019-06-15T03:31:00.927Z,11.50
2019-06-15T03:33:29.748Z,11.57
2019-06-15T03:35:58.670Z,11.07
2019-06-15T03:38:27.587Z,15.27
2019-06-15T03:40:56.435Z,12.60
2019-06-15T03:43:25.736Z,13.23
2019-06-15T03:45:54.549Z,11.53
2019-06-15T03:48:23.357Z,14.47
2019-06-15T03:50:52.212Z,12.17
2019-06-15T03:53:21.116Z,11.53
2019-06-15T03:55:49.965Z,11.63
2019-06-15T03:58:18.813Z,14.93
2019-06-15T04:01:01.279Z,12.67
2019-06-15T04:03:30.129Z,16.02
2019-06-15T04:05:59.026Z,14.03
2019-06-15T04:08:27.851Z,12.83
2019-06-15T04:10:56.811Z,11.27
2019-06-15T04:13:25.622Z,13.37
2019-06-15T04:15:54.532Z,11.40
2019-06-15T04:18:23.451Z,13.67
2019-06-15T04:20:52.358Z,12.53
2019-06-15T04:23:21.303Z,14.30
2019-06-15T04:25:50.263Z,11.87
2019-06-15T04:28:19.248Z,12.60
2019-06-15T04:30:48.151Z,12.13
2019-06-15T04:33:17.156Z,11.53
2019-06-15T04:35:46.127Z,12.33
2019-06-15T04:38:15.123Z,12.67
2019-06-15T04:40:43.978Z,15.87
2019-06-15T04:43:12.902Z,11.47
2019-06-15T04:45:41.750Z,11.10
2019-06-15T04:48:10.569Z,10.57
2019-06-15T04:50:39.509Z,13.17
2019-06-15T04:53:08.381Z,12.10
2019-06-15T04:55:37.350Z,12.30
2019-06-15T04:58:06.273Z,12.13
2019-06-15T05:00:35.145Z,11.50
2019-06-15T05:03:04.212Z,11.00
2019-06-15T05:05:33.270Z,12.03
2019-06-15T05:08:02.210Z,10.63
2019-06-15T05:10:31.027Z,11.97
2019-06-15T05:12:59.857Z,11.23
2019-06-15T05:15:28.744Z,11.40
2019-06-15T05:17:57.701Z,11.93
2019-06-15T05:20:26.576Z,9.73
2019-06-15T05:22:55.565Z,9.50
2019-06-15T05:25:24.637Z,10.73
2019-06-15T05:27:53.683Z,10.03
2019-06-15T05:30:22.769Z,10.43
2019-06-15T05:32:51.578Z,9.73
2019-06-15T05:35:23.502Z,10.23
2019-06-15T05:37:51.206Z,10.67
2019-06-15T05:40:20.237Z,10.30
2019-06-15T05:42:49.137Z,8.27
2019-06-15T05:45:18.333Z,11.85
2019-06-15T05:47:47.154Z,9.43
2019-06-15T05:50:17.082Z,12.70
2019-06-15T05:52:45.909Z,9.70
2019-06-15T05:55:14.886Z,9.77
2019-06-15T05:57:43.761Z,9.03
2019-06-15T06:00:14.517Z,9.10
2019-06-15T06:02:43.359Z,9.97
2019-06-15T06:05:12.348Z,10.23
2019-06-15T06:07:41.360Z,10.20
2019-06-15T06:10:11.153Z,10.60
2019-06-15T06:12:40.202Z,11.13
2019-06-15T06:15:09.566Z,13.67
2019-06-15T06:17:38.453Z,10.27
2019-06-15T06:20:09.305Z,9.97
2019-06-15T06:22:38.111Z,11.40
2019-06-15T06:25:07.177Z,11.07
2019-06-15T06:27:37.796Z,11.07
2019-06-15T06:30:08.182Z,11.13
2019-06-15T06:32:37.111Z,10.93
2019-06-15T06:35:06.463Z,8.65
2019-06-15T06:37:35.299Z,10.27
2019-06-15T06:40:05.422Z,10.10
2019-06-15T06:42:34.385Z,10.17
2019-06-15T06:45:03.413Z,12.97
2019-06-15T06:47:32.270Z,10.83
2019-06-15T06:50:01.164Z,11.47
2019-06-15T06:52:29.998Z,11.57
2019-06-15T06:54:58.860Z,12.83
2019-06-15T06:57:27.772Z,7.83
2019-06-15T06:59:56.624Z,3.33
2019-06-15T07:02:25.417Z,3.00
2019-06-15T07:04:54.318Z,2.90
2019-06-15T07:07:23.166Z,2.20
2019-06-15T07:09:52.003Z,2.10
2019-06-15T07:12:20.797Z,2.10
2019-06-15T07:14:49.605Z,1.87
2019-06-15T07:17:18.433Z,1.83
2019-06-15T07:19:47.917Z,1.87
2019-06-15T07:22:16.865Z,1.60
2019-06-15T07:24:45.752Z,1.93
2019-06-15T07:27:15.462Z,2.30
2019-06-15T07:29:44.379Z,2.17
2019-06-15T07:32:13.382Z,2.13
2019-06-15T07:34:42.202Z,2.63
2019-06-15T07:37:11.006Z,2.83
2019-06-15T07:39:39.873Z,3.50
2019-06-15T07:42:08.818Z,2.87
2019-06-15T07:44:37.718Z,2.70
2019-06-15T07:47:06.673Z,2.90
2019-06-15T07:49:35.636Z,2.43
2019-06-15T07:52:04.532Z,2.13
2019-06-15T07:54:36.203Z,2.87
2019-06-15T07:57:04.172Z,2.90
2019-06-15T07:59:33.183Z,2.13
2019-06-15T08:02:02.142Z,2.30
2019-06-15T08:04:31.017Z,2.10
2019-06-15T08:06:59.864Z,2.60
2019-06-15T08:09:28.664Z,2.40
2019-06-15T08:11:57.613Z,2.30
2019-06-15T08:14:26.450Z,2.30
2019-06-15T08:16:55.284Z,1.90
2019-06-15T08:19:24.284Z,2.63
2019-06-15T08:21:53.170Z,4.77
2019-06-15T08:24:22.027Z,2.23
2019-06-15T08:26:50.846Z,2.50
2019-06-15T08:29:19.797Z,2.07
2019-06-15T08:31:48.771Z,2.00
2019-06-15T08:34:17.663Z,1.80
2019-06-15T08:36:46.502Z,2.22
2019-06-15T08:39:15.341Z,1.97
2019-06-15T08:41:44.272Z,2.90
2019-06-15T08:44:13.139Z,2.10
2019-06-15T08:46:42.208Z,2.50
2019-06-15T08:49:11.047Z,2.20
2019-06-15T08:51:40.045Z,3.00
2019-06-15T08:54:08.990Z,1.40
2019-06-15T08:56:38.303Z,1.90
2019-06-15T08:59:07.197Z,1.67
2019-06-15T09:01:36.080Z,1.50
2019-06-15T09:04:05.081Z,1.32
2019-06-15T09:06:33.969Z,1.50
2019-06-15T09:09:03.066Z,1.20
2019-06-15T09:11:31.923Z,0.98
2019-06-15T09:14:00.885Z,1.30
2019-06-15T09:16:29.665Z,1.90
2019-06-15T09:18:58.461Z,2.55
2019-06-15T09:21:27.294Z,1.15
2019-06-15T09:23:56.111Z,1.12
2019-06-15T09:26:24.910Z,1.27
2019-06-15T09:28:53.740Z,1.62
2019-06-15T09:31:22.650Z,1.25
2019-06-15T09:33:51.501Z,2.52
2019-06-15T09:36:20.427Z,1.10
2019-06-15T09:38:49.362Z,1.75
2019-06-15T09:41:18.185Z,0.70
2019-06-15T09:43:46.989Z,1.15
2019-06-15T09:46:15.991Z,0.90
2019-06-15T09:48:44.867Z,0.82
2019-06-15T09:51:13.777Z,1.70
2019-06-15T09:53:42.705Z,1.40
2019-06-15T09:56:11.549Z,1.40
2019-06-15T09:58:40.443Z,1.30
2019-06-15T10:01:09.342Z,2.25
2019-06-15T10:03:38.202Z,3.40
2019-06-15T10:06:11.603Z,1.10
2019-06-15T10:08:37.823Z,1.25
2019-06-15T10:11:06.698Z,2.08
2019-06-15T10:13:35.524Z,1.22
2019-06-15T10:16:04.401Z,5.17
2019-06-15T10:18:33.367Z,1.12
2019-06-15T10:21:02.221Z,1.40
2019-06-15T10:23:31.194Z,1.95
2019-06-15T10:26:00.012Z,1.50
2019-06-15T10:28:28.824Z,1.62
2019-06-15T10:31:00.612Z,1.90
2019-06-15T10:33:28.417Z,2.02
2019-06-15T10:35:57.334Z,1.30
2019-06-15T10:38:26.197Z,2.12
2019-06-15T10:40:55.114Z,1.37
2019-06-15T10:43:23.984Z,1.37
2019-06-15T10:45:52.879Z,1.50
2019-06-15T10:48:21.662Z,1.40
2019-06-15T10:50:50.501Z,1.90
2019-06-15T10:53:19.291Z,1.55
2019-06-15T10:55:48.253Z,1.57
2019-06-15T10:58:17.143Z,2.90
2019-06-15T11:00:48.901Z,3.08
2019-06-15T11:03:17.525Z,2.40
2019-06-15T11:05:46.462Z,1.90
2019-06-15T11:08:15.301Z,3.50
2019-06-15T11:11:10.208Z,2.95
2019-06-15T11:13:39.052Z,2.72
2019-06-15T11:16:07.899Z,3.33
2019-06-15T11:18:37.450Z,3.12
2019-06-15T11:21:06.265Z,3.33
2019-06-15T11:23:35.353Z,2.75
2019-06-15T11:26:04.497Z,3.12
2019-06-15T11:28:33.482Z,3.87
2019-06-15T11:31:02.388Z,2.17
2019-06-15T11:33:31.350Z,2.95
2019-06-15T11:36:00.420Z,5.45
2019-06-15T11:38:29.396Z,4.08
2019-06-15T11:40:58.409Z,3.33
2019-06-15T11:43:27.332Z,2.60
2019-06-15T11:45:56.263Z,2.75
2019-06-15T11:48:25.242Z,6.35
2019-06-15T11:50:54.136Z,4.17
2019-06-15T11:53:23.048Z,3.25
2019-06-15T11:55:51.896Z,4.17
2019-06-15T11:58:20.763Z,2.65
2019-06-15T12:00:49.735Z,3.75
2019-06-15T12:03:18.624Z,2.27
2019-06-15T12:05:47.601Z,4.83
2019-06-15T12:08:16.499Z,4.60
2019-06-15T12:10:45.506Z,4.33
2019-06-15T12:13:14.386Z,2.27
2019-06-15T12:15:43.264Z,3.10
2019-06-15T12:18:12.183Z,3.05
2019-06-15T12:20:40.984Z,3.92
2019-06-15T12:23:09.981Z,5.37
2019-06-15T12:25:41.052Z,4.50
2019-06-15T12:28:10.044Z,4.08
2019-06-15T12:30:46.820Z,4.50
2019-06-15T12:33:10.343Z,6.60
2019-06-15T12:35:39.123Z,6.20
2019-06-15T12:38:07.980Z,3.80
2019-06-15T12:40:36.946Z,3.80
2019-06-15T12:43:05.872Z,4.28
2019-06-15T12:45:34.904Z,2.83
2019-06-15T12:48:03.814Z,5.40
2019-06-15T12:50:32.769Z,7.58
2019-06-15T12:53:01.655Z,4.50
2019-06-15T12:55:31.020Z,2.65
2019-06-15T12:58:00.034Z,4.15
2019-06-15T13:00:35.115Z,3.33
2019-06-15T13:03:04.281Z,5.80
2019-06-15T13:05:33.331Z,3.70
2019-06-15T13:08:02.236Z,6.00
2019-06-15T13:10:31.051Z,5.00
2019-06-15T13:12:59.978Z,3.02
2019-06-15T13:15:29.046Z,2.17
2019-06-15T13:17:57.886Z,2.30
2019-06-15T13:20:29.363Z,4.53
2019-06-15T13:22:58.377Z,5.28
2019-06-15T13:25:27.252Z,3.45
2019-06-15T13:27:56.187Z,4.58
2019-06-15T13:30:26.389Z,2.17
2019-06-15T13:32:55.373Z,6.28
2019-06-15T13:35:24.270Z,4.28
2019-06-15T13:37:53.062Z,2.80
2019-06-15T13:40:21.910Z,3.90
2019-06-15T13:42:50.714Z,4.62
2019-06-15T13:45:21.202Z,5.35
2019-06-15T13:47:50.056Z,1.80
2019-06-15T13:50:19.069Z,4.25
2019-06-15T13:52:48.090Z,1.67
2019-06-15T13:55:17.102Z,2.17
2019-06-15T13:57:46.018Z,3.02
2019-06-15T14:00:15.003Z,2.90
2019-06-15T14:02:43.886Z,3.08
2019-06-15T14:05:13.383Z,7.97
2019-06-15T14:07:42.282Z,2.92
2019-06-15T14:10:11.684Z,4.87
2019-06-15T14:12:40.792Z,5.65
2019-06-15T14:15:09.845Z,4.12
2019-06-15T14:17:39.943Z,3.08
2019-06-15T14:20:09.616Z,4.55
2019-06-15T14:22:38.498Z,2.30
2019-06-15T14:25:08.286Z,2.33
2019-06-15T14:27:37.248Z,2.35
2019-06-15T14:30:06.425Z,3.95
2019-06-15T14:32:35.414Z,2.10
2019-06-15T14:35:04.900Z,3.20
2019-06-15T14:37:33.928Z,3.25
2019-06-15T14:40:02.842Z,2.40
2019-06-15T14:42:31.911Z,4.95
2019-06-15T14:45:00.725Z,4.42
2019-06-15T14:47:29.657Z,4.15
2019-06-15T14:49:58.623Z,3.02
2019-06-15T14:52:27.545Z,4.75
2019-06-15T14:54:56.778Z,3.12
2019-06-15T14:57:27.010Z,2.50
2019-06-15T15:00:05.968Z,1.98
2019-06-15T15:02:33.164Z,2.10
2019-06-15T15:05:02.023Z,2.50
2019-06-15T15:07:30.831Z,3.17
2019-06-15T15:09:59.729Z,2.90
2019-06-15T15:12:28.635Z,2.65
2019-06-15T15:14:57.547Z,2.87
2019-06-15T15:17:27.055Z,3.05
2019-06-15T15:19:57.324Z,2.47
2019-06-15T15:22:26.962Z,1.80
2019-06-15T15:24:56.308Z,2.17
2019-06-15T15:27:27.148Z,2.87
2019-06-15T15:29:57.084Z,3.10
2019-06-15T15:32:31.109Z,2.00
2019-06-15T15:34:56.913Z,2.85
2019-06-15T15:37:26.736Z,2.27
2019-06-15T15:39:56.542Z,4.53
2019-06-15T15:42:26.946Z,5.90
2019-06-15T15:44:56.626Z,2.90
2019-06-15T15:47:27.422Z,3.75
2019-06-15T15:49:57.583Z,3.30
2019-06-15T15:52:27.223Z,2.62
2019-06-15T15:54:56.690Z,4.12
2019-06-15T15:57:26.626Z,5.25
2019-06-15T15:59:56.469Z,5.55
2019-06-15T16:02:35.543Z,3.37
2019-06-15T16:04:57.540Z,3.65
2019-06-15T16:07:27.753Z,3.15
2019-06-15T16:09:57.024Z,2.37
2019-06-15T16:12:25.826Z,3.10
2019-06-15T16:14:56.499Z,4.72
2019-06-15T16:17:26.773Z,5.83
2019-06-15T16:19:56.387Z,4.25
2019-06-15T16:22:26.324Z,4.20
2019-06-15T16:24:56.476Z,4.75
2019-06-15T16:27:26.590Z,4.37
2019-06-15T16:29:57.005Z,4.25
2019-06-15T16:32:26.387Z,3.42
2019-06-15T16:34:55.477Z,3.92
2019-06-15T16:37:26.028Z,3.98
2019-06-15T16:39:54.866Z,5.35
2019-06-15T16:42:23.687Z,3.65
2019-06-15T16:44:52.507Z,4.87
2019-06-15T16:47:21.370Z,4.28
2019-06-15T16:49:50.231Z,3.83
2019-06-15T16:52:19.080Z,3.50
2019-06-15T16:54:48.031Z,6.72
2019-06-15T16:57:16.936Z,3.85
2019-06-15T16:59:46.800Z,4.87
2019-06-15T17:02:17.221Z,3.67
2019-06-15T17:04:46.811Z,3.50
2019-06-15T17:07:17.416Z,3.10
2019-06-15T17:09:46.652Z,4.58
2019-06-15T17:12:16.936Z,3.20
2019-06-15T17:14:47.659Z,4.08
2019-06-15T17:17:17.312Z,5.28
2019-06-15T17:19:46.861Z,3.10
2019-06-15T17:22:21.071Z,5.20
2019-06-15T17:24:46.334Z,4.70
2019-06-15T17:27:17.044Z,2.65
2019-06-15T17:29:46.886Z,4.72
2019-06-15T17:32:17.068Z,2.47
2019-06-15T17:34:46.894Z,3.15
2019-06-15T17:37:17.273Z,2.95
2019-06-15T17:39:46.779Z,3.08
2019-06-15T17:42:16.442Z,2.45
2019-06-15T17:44:46.231Z,4.28
2019-06-15T17:47:16.911Z,2.62
2019-06-15T17:49:46.924Z,2.12
2019-06-15T17:52:16.828Z,6.20
2019-06-15T17:54:46.701Z,2.47
2019-06-15T17:57:15.613Z,4.12
2019-06-15T17:59:46.895Z,2.22
2019-06-15T18:02:17.094Z,2.20
2019-06-15T18:04:47.558Z,2.40
2019-06-15T18:07:16.961Z,2.12
2019-06-15T18:09:46.596Z,2.72
2019-06-15T18:12:16.245Z,2.35
2019-06-15T18:14:46.417Z,3.30
2019-06-15T18:17:17.156Z,3.08
2019-06-15T18:19:47.033Z,2.40
2019-06-15T18:22:17.039Z,3.35
2019-06-15T18:24:46.688Z,2.22
2019-06-15T18:27:16.915Z,3.70
2019-06-15T18:29:46.517Z,2.40
2019-06-15T18:32:17.140Z,2.50
2019-06-15T18:34:46.566Z,2.75
2019-06-15T18:37:17.285Z,2.50
2019-06-15T18:39:46.873Z,4.37
2019-06-15T18:42:16.447Z,2.10
2019-06-15T18:44:47.815Z,2.27
2019-06-15T18:47:16.618Z,3.05
2019-06-15T18:49:47.319Z,2.90
2019-06-15T18:52:17.075Z,2.85
2019-06-15T18:54:46.747Z,3.40
2019-06-15T18:57:17.612Z,3.37
2019-06-15T18:59:47.372Z,4.35
2019-06-15T19:02:16.587Z,2.20
2019-06-15T19:04:45.493Z,2.60
2019-06-15T19:07:16.217Z,2.65
2019-06-15T19:09:46.555Z,4.97
2019-06-15T19:12:18.577Z,2.08
2019-06-15T19:14:47.039Z,1.90
2019-06-15T19:17:16.580Z,3.25
2019-06-15T19:19:46.788Z,1.95
2019-06-15T19:22:17.171Z,1.80
2019-06-15T19:24:50.337Z,1.98
2019-06-15T19:27:16.855Z,3.05
2019-06-15T19:29:46.580Z,36.73
2019-06-15T19:32:17.243Z,9.43
2019-06-15T19:34:48.767Z,6.05
2019-06-15T19:37:16.972Z,3.00
2019-06-15T19:39:46.386Z,3.80
2019-06-15T19:42:15.568Z,4.45
2019-06-15T19:44:44.450Z,6.22
2019-06-15T19:47:16.185Z,5.25
2019-06-15T19:49:46.564Z,3.85
2019-06-15T19:52:16.747Z,3.85
2019-06-15T19:54:45.110Z,4.47
2019-06-15T19:57:14.092Z,3.50
2019-06-15T19:59:42.986Z,3.50
2019-06-15T20:02:12.074Z,5.97
2019-06-15T20:04:53.918Z,5.50
2019-06-15T20:07:11.588Z,4.15
2019-06-15T20:09:40.476Z,2.70
2019-06-15T20:12:18.173Z,7.95
2019-06-15T20:14:40.026Z,3.70
2019-06-15T20:17:08.892Z,3.52
2019-06-15T20:19:37.796Z,3.67
2019-06-15T20:22:06.824Z,2.90
2019-06-15T20:24:36.486Z,3.05
2019-06-15T20:27:10.077Z,4.25
2019-06-15T20:29:36.476Z,4.85
2019-06-15T20:32:06.831Z,8.23
2019-06-15T20:34:37.078Z,4.78
2019-06-15T20:37:06.203Z,2.98
2019-06-15T20:39:36.305Z,3.25
2019-06-15T20:42:07.906Z,4.58
2019-06-15T20:44:36.727Z,4.62
2019-06-15T20:47:06.595Z,6.60
2019-06-15T20:49:36.926Z,5.80
2019-06-15T20:52:07.050Z,6.80
2019-06-15T20:54:36.198Z,5.23
2019-06-15T20:57:06.401Z,4.78
2019-06-15T20:59:37.013Z,4.15
2019-06-15T21:02:06.694Z,4.37
2019-06-15T21:04:36.468Z,4.10
2019-06-15T21:07:06.601Z,3.87
2019-06-15T21:09:36.411Z,4.27
2019-06-15T21:12:06.596Z,3.97
2019-06-15T21:14:36.623Z,6.33
2019-06-15T21:17:06.702Z,4.33
2019-06-15T21:19:36.205Z,3.93
2019-06-15T21:22:06.309Z,3.60
2019-06-15T21:24:37.281Z,4.07
2019-06-15T21:27:06.345Z,8.80
2019-06-15T21:29:37.034Z,4.40
2019-06-15T21:32:06.316Z,6.47
2019-06-15T21:34:36.173Z,6.65
2019-06-15T21:37:06.586Z,5.47
2019-06-15T21:39:36.458Z,5.22
2019-06-15T21:42:05.826Z,4.10
2019-06-15T21:44:36.105Z,3.77
2019-06-15T21:47:06.948Z,3.80
2019-06-15T21:49:35.960Z,3.60
2019-06-15T21:52:07.107Z,4.03
2019-06-15T21:54:36.044Z,4.07
2019-06-15T21:57:07.015Z,3.43
2019-06-15T21:59:36.914Z,7.03
2019-06-15T22:02:06.973Z,3.57
2019-06-15T22:04:36.962Z,4.30
2019-06-15T22:07:06.594Z,5.03
2019-06-15T22:09:36.416Z,4.10
2019-06-15T22:12:06.847Z,3.93
2019-06-15T22:14:35.976Z,3.33
2019-06-15T22:17:06.728Z,3.37
2019-06-15T22:19:36.902Z,3.63
2019-06-15T22:22:07.474Z,4.40
2019-06-15T22:24:36.647Z,4.10
2019-06-15T22:27:06.631Z,5.70
2019-06-15T22:29:36.502Z,5.40
2019-06-15T22:32:06.809Z,5.03
2019-06-15T22:34:36.423Z,7.87
2019-06-15T22:37:06.848Z,4.97
2019-06-15T22:39:37.042Z,5.03
2019-06-15T22:42:06.823Z,5.80
2019-06-15T22:44:37.263Z,3.87
2019-06-15T22:47:06.994Z,3.60
2019-06-15T22:49:36.166Z,4.07
2019-06-15T22:52:06.580Z,3.60
2019-06-15T22:54:37.678Z,4.37
2019-06-15T22:57:06.364Z,5.43
2019-06-15T22:59:35.281Z,5.50
2019-06-15T23:02:06.952Z,2.90
2019-06-15T23:04:37.195Z,2.90
2019-06-15T23:07:06.902Z,4.27
2019-06-15T23:09:36.177Z,3.40
2019-06-15T23:12:07.128Z,3.67
2019-06-15T23:14:40.969Z,3.37
2019-06-15T23:17:09.768Z,4.53
2019-06-15T23:19:38.643Z,4.60
2019-06-15T23:22:07.841Z,5.33
2019-06-15T23:24:36.886Z,4.63
2019-06-15T23:27:06.779Z,4.23
2019-06-15T23:29:36.826Z,4.37
2019-06-15T23:32:06.376Z,4.63
2019-06-15T23:34:37.312Z,4.70
2019-06-15T23:37:07.987Z,4.43
2019-06-15T23:39:36.904Z,4.43
2019-06-15T23:42:06.218Z,5.30
2019-06-15T23:44:36.085Z,5.63
2019-06-15T23:47:05.138Z,5.33
2019-06-15T23:49:36.521Z,4.97
2019-06-15T23:52:06.849Z,5.87
2019-06-15T23:54:36.995Z,5.53
2019-06-15T23:57:06.393Z,7.13
2019-06-15T23:59:37.263Z,7.13
